createdAt,value
2018-03-25T00:01:12.507Z,99593.50
2018-03-25T00:03:40.150Z,99595.34
2018-03-25T00:06:07.767Z,99594.05
2018-03-25T00:08:35.488Z,99590.20
2018-03-25T00:11:03.127Z,99590.94
2018-03-25T00:13:30.722Z,99593.17
2018-03-25T00:15:58.352Z,99602.30
2018-03-25T00:18:25.950Z,99597.98
2018-03-25T00:20:53.584Z,99600.98
2018-03-25T00:23:21.228Z,99598.83
2018-03-25T00:25:48.848Z,99592.36
2018-03-25T00:28:16.449Z,99597.50
2018-03-25T00:30:44.079Z,99596.66
2018-03-25T00:33:11.704Z,99598.79
2018-03-25T00:35:39.307Z,99595.81
2018-03-25T00:38:06.943Z,99594.48
2018-03-25T00:40:34.554Z,99589.76
2018-03-25T00:43:02.168Z,99589.70
2018-03-25T00:45:29.762Z,99592.33
2018-03-25T00:47:57.395Z,99590.20
2018-03-25T00:50:24.995Z,99591.41
2018-03-25T00:52:52.614Z,99588.03
2018-03-25T00:55:20.327Z,99592.30
2018-03-25T00:57:47.943Z,99594.52
2018-03-25T01:00:15.603Z,99595.90
2018-03-25T01:02:43.224Z,99597.07
2018-03-25T01:05:10.848Z,99597.50
2018-03-25T01:07:38.521Z,99599.69
2018-03-25T01:10:06.187Z,99599.27
2018-03-25T01:12:33.853Z,99607.06
2018-03-25T01:15:01.481Z,99600.14
2018-03-25T01:17:29.107Z,99605.36
2018-03-25T01:19:56.775Z,99608.48
2018-03-25T01:22:24.396Z,99608.38
2018-03-25T01:24:52.059Z,99615.66
2018-03-25T01:27:19.751Z,99609.17
2018-03-25T01:29:47.474Z,99610.47
2018-03-25T01:32:15.143Z,99612.09
2018-03-25T01:34:42.748Z,99612.24
2018-03-25T01:37:10.359Z,99611.86
2018-03-25T01:39:38.094Z,99609.66
2018-03-25T01:42:05.743Z,99606.19
2018-03-25T01:44:33.370Z,99608.38
2018-03-25T01:47:00.967Z,99607.50
2018-03-25T01:49:28.595Z,99611.78
2018-03-25T01:51:56.191Z,99610.97
2018-03-25T10:45:28.947Z,99909.11
2018-03-25T10:47:56.631Z,99902.77
2018-03-25T10:50:24.242Z,99904.56
2018-03-25T10:52:51.904Z,99913.89
2018-03-25T10:55:19.619Z,99905.02
2018-03-25T10:57:47.327Z,99905.11
2018-03-25T11:00:14.983Z,99891.37
2018-03-25T11:02:42.644Z,99897.06
2018-03-25T11:05:10.467Z,99897.44
2018-03-25T11:07:38.179Z,99894.87
2018-03-25T11:10:05.796Z,99898.16
2018-03-25T11:12:33.447Z,99905.23
2018-03-25T11:15:01.091Z,99891.78
2018-03-25T11:17:28.694Z,99894.25
2018-03-25T11:19:56.296Z,99888.25
2018-03-25T11:22:23.947Z,99886.09
2018-03-25T11:24:52.535Z,99885.52
2018-03-25T11:27:20.170Z,99886.88
2018-03-25T11:29:47.797Z,99880.92
2018-03-25T11:32:15.823Z,99877.64
2018-03-25T11:34:43.403Z,99877.34
2018-03-25T11:37:11.087Z,99878.15
2018-03-25T11:39:38.720Z,99874.97
2018-03-25T11:42:06.367Z,99865.45
2018-03-25T11:44:34.013Z,99865.76
2018-03-25T11:47:01.618Z,99864.86
2018-03-25T11:49:29.286Z,99858.39
2018-03-25T11:51:56.943Z,99856.72
2018-03-25T11:54:24.547Z,99856.22
2018-03-25T11:56:52.162Z,99867.67
2018-03-25T11:59:19.743Z,99866.73
2018-03-25T12:01:47.374Z,99865.06
2018-03-25T12:04:14.962Z,99867.39
2018-03-25T12:06:42.633Z,99869.78
2018-03-25T12:09:10.217Z,99864.42
2018-03-25T12:11:37.906Z,99865.33
2018-03-25T12:14:05.499Z,99865.58
2018-03-25T12:16:33.103Z,99858.77
2018-03-25T12:19:00.835Z,99857.12
2018-03-25T12:21:28.657Z,99853.96
2018-03-25T12:23:56.436Z,99859.00
2018-03-25T12:26:24.035Z,99854.61
2018-03-25T12:28:51.636Z,99855.69
2018-03-25T12:31:19.238Z,99847.52
2018-03-25T12:33:46.882Z,99847.80
2018-03-25T12:36:17.522Z,99847.01
2018-03-25T12:38:45.165Z,99841.71
2018-03-25T12:41:12.823Z,99850.55
2018-03-25T12:43:40.410Z,99850.82
2018-03-25T12:46:07.995Z,99848.83
2018-03-25T12:48:35.611Z,99857.53
2018-03-25T12:51:03.254Z,99849.69
2018-03-25T12:53:30.838Z,99853.12
2018-03-25T12:55:58.427Z,99846.19
2018-03-25T12:58:26.019Z,99838.84
2018-03-25T13:00:53.680Z,99842.18
2018-03-25T13:03:21.273Z,99842.92
2018-03-25T13:05:48.891Z,99834.86
2018-03-25T13:08:16.557Z,99833.13
2018-03-25T13:10:44.201Z,99827.48
2018-03-25T13:13:11.817Z,99830.05
2018-03-25T13:15:39.412Z,99838.75
2018-03-25T13:18:07.052Z,99833.41
2018-03-25T13:20:34.663Z,99837.58
2018-03-25T13:23:02.266Z,99844.69
2018-03-25T13:25:29.879Z,99836.20
2018-03-25T13:27:57.462Z,99833.89
2018-03-25T13:30:25.128Z,99842.58
2018-03-25T13:32:52.722Z,99836.45
2018-03-25T13:35:20.348Z,99837.69
2018-03-25T13:37:47.966Z,99842.59
2018-03-25T13:40:15.595Z,99837.69
2018-03-25T13:42:43.183Z,99839.22
2018-03-25T13:45:10.860Z,99836.11
2018-03-25T13:47:38.447Z,99833.27
2018-03-25T13:50:06.051Z,99829.24
2018-03-25T13:52:33.643Z,99835.64
2018-03-25T13:55:01.251Z,99832.98
2018-03-25T13:57:28.883Z,99831.00
2018-03-25T13:59:56.527Z,99831.03
2018-03-25T14:02:24.155Z,99829.14
2018-03-25T14:04:51.743Z,99830.30
2018-03-25T14:07:19.387Z,99831.45
2018-03-25T14:09:46.988Z,99829.94
2018-03-25T14:12:14.574Z,99835.55
2018-03-25T14:14:42.215Z,99833.30
2018-03-25T14:17:09.827Z,99825.09
2018-03-25T14:19:37.416Z,99823.88
2018-03-25T14:22:05.015Z,99818.64
2018-03-25T14:24:32.623Z,99815.69
2018-03-25T14:27:00.223Z,99812.63
2018-03-25T14:29:27.807Z,99813.09
2018-03-25T14:31:55.418Z,99806.89
2018-03-25T14:34:23.051Z,99808.61
2018-03-25T14:36:50.645Z,99812.05
2018-03-25T14:39:18.259Z,99806.78
2018-03-25T14:41:45.901Z,99803.66
2018-03-25T14:44:13.521Z,99795.83
2018-03-25T14:46:41.118Z,99799.17
2018-03-25T14:49:08.758Z,99803.89
2018-03-25T14:51:36.375Z,99806.52
2018-03-25T14:54:03.999Z,99805.89
2018-03-25T14:56:31.687Z,99809.50
2018-03-25T14:58:59.247Z,99813.77
2018-03-25T15:01:26.830Z,99809.91
2018-03-25T15:03:54.470Z,99815.59
2018-03-25T15:06:22.051Z,99805.53
2018-03-25T15:08:49.639Z,99807.70
2018-03-25T15:11:17.254Z,99803.67
2018-03-25T15:13:45.014Z,99802.36
2018-03-25T15:16:12.691Z,99805.75
2018-03-25T15:18:40.280Z,99798.22
2018-03-25T15:21:07.886Z,99788.59
2018-03-25T15:23:35.507Z,99795.20
2018-03-25T15:26:03.249Z,99802.69
2018-03-25T15:28:30.964Z,99800.95
2018-03-25T15:30:58.580Z,99799.00
2018-03-25T15:33:26.415Z,99807.77
2018-03-25T15:35:54.040Z,99803.37
2018-03-25T15:38:21.698Z,99799.89
2018-03-25T15:40:49.277Z,99800.58
2018-03-25T15:43:16.899Z,99793.19
2018-03-25T15:45:44.483Z,99798.13
2018-03-25T15:48:12.071Z,99800.33
2018-03-25T15:50:39.675Z,99801.17
2018-03-25T15:53:07.370Z,99799.83
2018-03-25T15:55:35.043Z,99797.16
2018-03-25T15:58:02.659Z,99804.09
2018-03-25T16:00:30.252Z,99799.81
2018-03-25T16:02:57.882Z,99804.65
2018-03-25T16:05:25.484Z,99807.85
2018-03-25T16:07:53.158Z,99809.03
2018-03-25T16:10:21.061Z,99807.59
2018-03-25T16:12:48.667Z,99809.33
2018-03-25T16:15:16.260Z,99810.22
2018-03-25T16:17:43.939Z,99811.55
2018-03-25T16:20:11.526Z,99805.41
2018-03-25T16:22:39.196Z,99806.32
2018-03-25T16:25:06.828Z,99804.98
2018-03-25T16:27:34.419Z,99804.56
2018-03-25T16:30:02.040Z,99803.77
2018-03-25T16:32:29.655Z,99808.30
2018-03-25T16:34:57.275Z,99813.54
2018-03-25T16:37:24.899Z,99811.54
2018-03-25T16:39:52.490Z,99815.84
2018-03-25T16:42:20.208Z,99812.56
2018-03-25T16:44:47.806Z,99813.86
2018-03-25T16:47:15.395Z,99813.04
2018-03-25T16:49:42.987Z,99810.03
2018-03-25T16:52:10.584Z,99816.11
2018-03-25T16:54:38.178Z,99809.35
2018-03-25T16:57:05.779Z,99814.58
2018-03-25T16:59:33.415Z,99815.84
2018-03-25T17:02:00.998Z,99809.30
2018-03-25T17:04:28.603Z,99813.33
2018-03-25T17:06:56.231Z,99809.36
2018-03-25T17:09:23.831Z,99810.75
2018-03-25T17:11:51.723Z,99805.05
2018-03-25T17:14:19.310Z,99810.67
2018-03-25T17:16:46.982Z,99810.22
2018-03-25T17:19:14.577Z,99811.23
2018-03-25T17:21:42.179Z,99808.09
2018-03-25T17:24:09.779Z,99805.55
2018-03-25T17:26:37.384Z,99802.36
2018-03-25T17:29:05.015Z,99809.08
2018-03-25T17:31:32.634Z,99810.64
2018-03-25T17:34:00.222Z,99805.04
2018-03-25T17:36:27.851Z,99815.00
2018-03-25T17:38:55.435Z,99812.10
2018-03-25T17:41:23.071Z,99806.89
2018-03-25T17:43:50.700Z,99813.75
2018-03-25T17:46:18.331Z,99812.91
2018-03-25T17:48:45.942Z,99823.85
2018-03-25T17:51:13.598Z,99826.26
2018-03-25T17:53:41.232Z,99818.94
2018-03-25T17:56:08.851Z,99815.88
2018-03-25T17:58:36.450Z,99819.09
2018-03-25T18:01:04.071Z,99813.89
2018-03-25T18:03:31.648Z,99809.52
2018-03-25T18:05:59.251Z,99804.66
2018-03-25T18:08:26.856Z,99807.65
2018-03-25T18:10:54.463Z,99805.97
2018-03-25T18:13:22.153Z,99804.52
2018-03-25T18:15:49.767Z,99807.58
2018-03-25T18:18:17.383Z,99807.38
2018-03-25T18:20:56.291Z,99806.48
2018-03-25T18:23:12.723Z,99810.43
2018-03-25T18:25:40.351Z,99802.83
2018-03-25T18:28:08.673Z,99808.45
2018-03-25T18:30:36.293Z,99810.89
2018-03-25T18:33:03.882Z,99806.48
2018-03-25T18:35:31.476Z,99807.02
2018-03-25T18:37:59.160Z,99807.88
2018-03-25T18:40:26.768Z,99802.57
2018-03-25T18:42:54.365Z,99798.30
2018-03-25T18:45:22.002Z,99800.50
2018-03-25T18:47:49.599Z,99801.27
2018-03-25T18:50:17.183Z,99807.44
2018-03-25T18:52:44.834Z,99800.05
2018-03-25T18:55:12.419Z,99802.30
2018-03-25T18:57:40.024Z,99805.25
2018-03-25T19:00:07.851Z,99805.34
2018-03-25T19:02:35.469Z,99809.39
2018-03-25T19:05:03.095Z,99811.06
2018-03-25T19:07:30.779Z,99801.43
2018-03-25T19:09:58.497Z,99799.39
2018-03-25T19:12:26.084Z,99803.30
2018-03-25T19:14:53.667Z,99804.64
2018-03-25T19:17:21.304Z,99802.40
2018-03-25T19:19:48.944Z,99799.67
2018-03-25T19:22:16.583Z,99801.28
2018-03-25T19:24:44.219Z,99799.30
2018-03-25T19:27:11.846Z,99795.48
2018-03-25T19:29:39.495Z,99790.61
2018-03-25T19:32:08.077Z,99792.88
2018-03-25T19:34:36.419Z,99788.86
2018-03-25T19:37:04.044Z,99790.55
2018-03-25T19:39:31.669Z,99790.97
2018-03-25T19:41:59.299Z,99795.75
2018-03-25T19:44:27.909Z,99791.83
2018-03-25T19:46:55.563Z,99786.56
2018-03-25T19:49:23.189Z,99785.73
2018-03-25T19:51:50.825Z,99776.11
2018-03-25T19:54:18.423Z,99777.89
2018-03-25T19:56:46.028Z,99771.52
2018-03-25T19:59:13.624Z,99768.48
2018-03-25T20:01:41.767Z,99768.48
2018-03-25T20:04:09.531Z,99771.62
2018-03-25T20:06:37.263Z,99772.40
2018-03-25T20:09:05.794Z,99766.38
2018-03-25T20:11:33.443Z,99768.56
2018-03-25T20:14:01.035Z,99772.46
2018-03-25T20:16:28.671Z,99772.39
2018-03-25T20:18:56.273Z,99763.77
2018-03-25T20:24:16.801Z,99754.64
2018-03-25T20:26:44.531Z,99754.64
2018-03-25T20:29:12.147Z,99759.05
2018-03-25T20:31:39.775Z,99755.55
2018-03-25T20:34:07.392Z,99752.38
2018-03-25T20:36:34.999Z,99747.58
2018-03-25T20:39:02.697Z,99751.19
2018-03-25T20:41:30.429Z,99741.55
2018-03-25T20:43:58.044Z,99740.74
2018-03-25T20:46:25.667Z,99745.50
2018-03-25T20:48:53.288Z,99733.64
2018-03-25T20:51:20.939Z,99728.86
2018-03-25T20:53:48.568Z,99725.50
2018-03-25T20:56:16.258Z,99720.72
2018-03-25T20:58:43.827Z,99727.22
2018-03-25T21:01:11.505Z,99713.33
2018-03-25T21:03:39.133Z,99713.29
2018-03-25T21:06:06.767Z,99710.19
2018-03-25T21:08:34.367Z,99703.75
2018-03-25T21:11:01.994Z,99705.55
2018-03-25T21:13:29.630Z,99694.20
2018-03-25T21:15:57.222Z,99692.15
2018-03-25T21:18:24.871Z,99690.72
2018-03-25T21:20:52.563Z,99686.36
2018-03-25T21:23:20.247Z,99671.92
2018-03-25T21:25:47.860Z,99674.55
2018-03-25T21:28:15.475Z,99668.09
2018-03-25T21:30:43.078Z,99668.92
2018-03-25T21:33:10.694Z,99664.12
2018-03-25T21:35:38.300Z,99654.98
2018-03-25T21:38:05.895Z,99652.44
2018-03-25T21:40:33.531Z,99650.26
2018-03-25T21:43:01.127Z,99651.98
2018-03-25T21:45:29.328Z,99649.50
2018-03-25T21:47:56.935Z,99641.69
2018-03-25T21:50:24.714Z,99650.27
2018-03-25T21:52:52.339Z,99650.69
2018-03-25T21:55:19.966Z,99644.53
2018-03-25T21:57:47.603Z,99642.67
2018-03-25T22:00:15.224Z,99650.13
2018-03-25T22:02:42.872Z,99639.38
2018-03-25T22:05:10.477Z,99639.30
2018-03-25T22:07:38.075Z,99635.84
2018-03-25T22:10:05.702Z,99630.21
2018-03-25T22:12:33.287Z,99623.23
2018-03-25T22:15:00.911Z,99625.89
2018-03-25T22:17:28.559Z,99620.67
2018-03-25T22:19:56.148Z,99614.41
2018-03-25T22:22:23.731Z,99613.96
2018-03-25T22:24:51.325Z,99612.59
2018-03-25T22:27:18.970Z,99628.73
2018-03-25T22:29:46.567Z,99621.64
2018-03-25T22:32:14.244Z,99613.20
2018-03-25T22:34:41.815Z,99614.39
2018-03-25T22:37:09.431Z,99614.47
2018-03-25T22:39:37.019Z,99617.12
2018-03-25T22:42:04.619Z,99607.09
2018-03-25T22:44:32.321Z,99609.08
2018-03-25T22:46:59.902Z,99611.28
2018-03-25T22:49:27.484Z,99605.24
2018-03-25T22:51:55.127Z,99606.70
2018-03-25T22:54:22.683Z,99606.55
2018-03-25T22:56:50.299Z,99599.58
2018-03-25T22:59:17.887Z,99589.48
2018-03-25T23:01:45.525Z,99596.08
2018-03-25T23:04:13.151Z,99592.20
2018-03-25T23:06:40.742Z,99586.42
2018-03-25T23:09:08.359Z,99593.33
2018-03-25T23:11:35.973Z,99589.91
2018-03-25T23:14:03.582Z,99582.09
2018-03-25T23:16:32.740Z,99577.08
2018-03-25T23:19:00.362Z,99585.97
2018-03-25T23:21:27.939Z,99578.52
2018-03-25T23:23:55.566Z,99577.20
2018-03-25T23:26:23.167Z,99591.16
2018-03-25T23:28:50.754Z,99582.50
2018-03-25T23:31:18.415Z,99579.41
2018-03-25T23:33:46.023Z,99577.22
